KCRW/CRW METAR and TAF weather

Enter ICAO airport designator
Station Type Date Time Source
KCRW METAR 2022/12/10 01:01 UTC NOAA

KCRW 100101Z 09003KT 10SM BKN029 OVC037 11/08 A3008 RMK AO2 T01110083


Station Type Date Time Source
KCRW Decoded METAR 2022/12/10 01:01 UTC NOAA

YEAGER AIRPORT, WV, United States (KCRW) 38-22N 081-36W 309M
Dec 09, 2022 - 08:01 PM EST / 2022.12.10 0101 UTC
Wind: from the E (090 degrees) at 3 MPH (3 KT):0
Visibility: 10 mile(s):0
Sky conditions: overcast
Temperature: 52.0 F (11.1 C)
Dew Point: 46.9 F (8.3 C)
Relative Humidity: 82%
Pressure (altimeter): 30.08 in. Hg (1018 hPa)
ob: KCRW 100101Z 09003KT 10SM BKN029 OVC037 11/08 A3008 RMK AO2 T01110083
cycle: 1

Station Type Date Time Source
KCRW TAF 2022/12/09 18:30 UTC NOAA

TAF KCRW 091728Z 0918/1018 VRB04KT P6SM SCT008 BKN015
FM100200 VRB03KT P6SM -SHRA SCT006 BKN015
FM100600 00000KT 6SM BR OVC012
FM100900 00000KT 5SM BR BKN007 OVC011
FM101700 VRB03KT P6SM OVC015

Example: see airport list